Legacy — 41030Q — position and weather

sailwx.info

Track history (hours):
 
Tides and Currents Weather Stations Pressure Air Temp Water Temp Dewpoint Dewpoint Depression Visibility Wind Speed Wind Dir Waves Ship Positions

Legacy

Last reported at 2018-Jul-19 00:09 UTC. Time now 2018-Jul-19 11:49 UTC.
Position S 27°32' E 153°21'.

Length 22 m.

Type: Passenger vessel. MMSI: 503043660.

Date/timePositionNaut miles runAvg speedWind from/ knotsBaromVisibWave heightAir tempDewpointWater temp
2018-Jul-19 00:09S 27°32' E 153°21'3 0.8
2018-Jul-18 20:45S 27°32' E 153°18'613.6
2018-Jul-18 20:17S 27°30' E 153°24'620.2
2018-Jul-18 19:58S 27°32' E 153°17'5 6.4
2018-Jul-18 19:12S 27°30' E 153°23'422.4
2018-Jul-18 19:00S 27°32' E 153°18'1 0.1
2018-Jul-18 10:20S 27°32' E 153°17'2 3.1
2018-Jul-18 09:36S 27°32' E 153°20'219.1
2018-Jul-18 09:30S 27°32' E 153°18'4 5.2
2018-Jul-18 08:45S 27°31' E 153°22'416.8
2018-Jul-18 08:30S 27°32' E 153°17'610.6
2018-Jul-18 07:53S 27°29' E 153°24'613.7
2018-Jul-18 07:25S 27°32' E 153°17'712.0
2018-Jul-18 06:52S 27°30' E 153°24'715.1
2018-Jul-18 06:26S 27°32' E 153°17'711.9
2018-Jul-18 05:52S 27°30' E 153°24'7 9.9
2018-Jul-18 05:12S 27°32' E 153°17'0 0.0
2018-Jul-18 04:51S 27°32' E 153°17'3 4.2
2018-Jul-18 04:10S 27°32' E 153°20'1 0.1
2018-Jul-17 23:13S 27°31' E 153°21'3 4.5
2018-Jul-17 22:32S 27°29' E 153°24'0 1.9
2018-Jul-17 22:21S 27°29' E 153°24'0 0.4
2018-Jul-17 21:18S 27°29' E 153°24'620.6
2018-Jul-17 21:00S 27°32' E 153°17'3 3.5
2018-Jul-17 20:09S 27°32' E 153°21'3 8.8
2018-Jul-17 19:49S 27°32' E 153°17'612.0
2018-Jul-17 19:17S 27°29' E 153°24'3 0.4
2018-Jul-17 09:40S 27°31' E 153°21'1 0.6
2018-Jul-17 08:39S 27°32' E 153°20'1 0.6
2018-Jul-17 07:44S 27°32' E 153°21'3 0.3
2018-Jul-16 23:02S 27°32' E 153°18'121.6
2018-Jul-16 23:00S 27°32' E 153°17'2 2.3
2018-Jul-16 22:04S 27°32' E 153°20'222.6
2018-Jul-16 22:00S 27°32' E 153°18'2 2.8
2018-Jul-16 21:07S 27°31' E 153°21'321.5
2018-Jul-16 21:00S 27°32' E 153°18'2 2.2
2018-Jul-16 20:05S 27°32' E 153°20'223.5
2018-Jul-16 20:00S 27°32' E 153°18'610.5
2018-Jul-16 19:26S 27°30' E 153°24'4 0.3
2018-Jul-16 07:38S 27°32' E 153°20'320.1
2018-Jul-16 07:30S 27°32' E 153°17'3 4.1
2018-Jul-16 06:43S 27°31' E 153°21'1 0.1
2018-Jul-15 23:08S 27°32' E 153°20'4 4.9
2018-Jul-15 22:19S 27°30' E 153°24'4 3.5
2018-Jul-15 21:06S 27°32' E 153°20'1 0.5
2018-Jul-15 19:08S 27°31' E 153°21'0 0.0
2018-Jul-15 09:40S 27°32' E 153°21'0 0.6
2018-Jul-15 08:48S 27°31' E 153°21'3 2.2
2018-Jul-15 07:22S 27°32' E 153°18'611.2
2018-Jul-15 06:50S 27°29' E 153°24'3 0.3
2018-Jul-14 22:11S 27°31' E 153°21'318.7
2018-Jul-14 22:00S 27°32' E 153°17'6 8.9
2018-Jul-14 21:18S 27°29' E 153°24'3 3.0
2018-Jul-14 20:09S 27°31' E 153°21'318.7
2018-Jul-14 20:00S 27°32' E 153°18'4 0.4
2018-Jul-14 09:42S 27°30' E 153°22'2 1.8
2018-Jul-14 08:44S 27°31' E 153°21'3 9.6
2018-Jul-14 08:24S 27°32' E 153°17'3 4.4
2018-Jul-14 07:46S 27°32' E 153°20'4 4.3
2018-Jul-14 06:54S 27°29' E 153°24'0 0.0
2018-Jul-14 02:22S 27°29' E 153°24'4 0.2
2018-Jul-13 09:40S 27°32' E 153°20'0 0.1
2018-Jul-13 08:40S 27°32' E 153°20'0 0.0
2018-Jul-12 21:07S 27°32' E 153°21'4 4.5
2018-Jul-12 20:19S 27°30' E 153°24'0 0.0
2018-Jul-10 19:19S 27°30' E 153°24'5 0.2
2018-Jul-09 19:05S 27°32' E 153°19'  
Track history (hours):
 
Tides and Currents Weather Stations Pressure Air Temp Water Temp Dewpoint Dewpoint Depression Visibility Wind Speed Wind Dir Waves Ship Positions

Legacy

Last reported at 2018-Jul-19 00:09 UTC. Time now 2018-Jul-19 11:49 UTC.
Position S 27°32' E 153°21'.

Length 22 m.

Type: Passenger vessel. MMSI: 503043660.

Date/timePositionNaut miles runAvg speedWind from/ knotsBaromVisibWave heightAir tempDewpointWater temp
2018-Jul-19 00:09S 27°32' E 153°21'3 0.8
2018-Jul-18 20:45S 27°32' E 153°18'613.6
2018-Jul-18 20:17S 27°30' E 153°24'620.2
2018-Jul-18 19:58S 27°32' E 153°17'5 6.4
2018-Jul-18 19:12S 27°30' E 153°23'422.4
2018-Jul-18 19:00S 27°32' E 153°18'1 0.1
2018-Jul-18 10:20S 27°32' E 153°17'2 3.1
2018-Jul-18 09:36S 27°32' E 153°20'219.1
2018-Jul-18 09:30S 27°32' E 153°18'4 5.2
2018-Jul-18 08:45S 27°31' E 153°22'416.8
2018-Jul-18 08:30S 27°32' E 153°17'610.6
2018-Jul-18 07:53S 27°29' E 153°24'613.7
2018-Jul-18 07:25S 27°32' E 153°17'712.0
2018-Jul-18 06:52S 27°30' E 153°24'715.1
2018-Jul-18 06:26S 27°32' E 153°17'711.9
2018-Jul-18 05:52S 27°30' E 153°24'7 9.9
2018-Jul-18 05:12S 27°32' E 153°17'0 0.0
2018-Jul-18 04:51S 27°32' E 153°17'3 4.2
2018-Jul-18 04:10S 27°32' E 153°20'1 0.1
2018-Jul-17 23:13S 27°31' E 153°21'3 4.5
2018-Jul-17 22:32S 27°29' E 153°24'0 1.9
2018-Jul-17 22:21S 27°29' E 153°24'0 0.4
2018-Jul-17 21:18S 27°29' E 153°24'620.6
2018-Jul-17 21:00S 27°32' E 153°17'3 3.5
2018-Jul-17 20:09S 27°32' E 153°21'3 8.8
2018-Jul-17 19:49S 27°32' E 153°17'612.0
2018-Jul-17 19:17S 27°29' E 153°24'3 0.4
2018-Jul-17 09:40S 27°31' E 153°21'1 0.6
2018-Jul-17 08:39S 27°32' E 153°20'1 0.6
2018-Jul-17 07:44S 27°32' E 153°21'3 0.3
2018-Jul-16 23:02S 27°32' E 153°18'121.6
2018-Jul-16 23:00S 27°32' E 153°17'2 2.3
2018-Jul-16 22:04S 27°32' E 153°20'222.6
2018-Jul-16 22:00S 27°32' E 153°18'2 2.8
2018-Jul-16 21:07S 27°31' E 153°21'321.5
2018-Jul-16 21:00S 27°32' E 153°18'2 2.2
2018-Jul-16 20:05S 27°32' E 153°20'223.5
2018-Jul-16 20:00S 27°32' E 153°18'610.5
2018-Jul-16 19:26S 27°30' E 153°24'4 0.3
2018-Jul-16 07:38S 27°32' E 153°20'320.1
2018-Jul-16 07:30S 27°32' E 153°17'3 4.1
2018-Jul-16 06:43S 27°31' E 153°21'1 0.1
2018-Jul-15 23:08S 27°32' E 153°20'4 4.9
2018-Jul-15 22:19S 27°30' E 153°24'4 3.5
2018-Jul-15 21:06S 27°32' E 153°20'1 0.5
2018-Jul-15 19:08S 27°31' E 153°21'0 0.0
2018-Jul-15 09:40S 27°32' E 153°21'0 0.6
2018-Jul-15 08:48S 27°31' E 153°21'3 2.2
2018-Jul-15 07:22S 27°32' E 153°18'611.2
2018-Jul-15 06:50S 27°29' E 153°24'3 0.3
2018-Jul-14 22:11S 27°31' E 153°21'318.7
2018-Jul-14 22:00S 27°32' E 153°17'6 8.9
2018-Jul-14 21:18S 27°29' E 153°24'3 3.0
2018-Jul-14 20:09S 27°31' E 153°21'318.7
2018-Jul-14 20:00S 27°32' E 153°18'4 0.4
2018-Jul-14 09:42S 27°30' E 153°22'2 1.8
2018-Jul-14 08:44S 27°31' E 153°21'3 9.6
2018-Jul-14 08:24S 27°32' E 153°17'3 4.4
2018-Jul-14 07:46S 27°32' E 153°20'4 4.3
2018-Jul-14 06:54S 27°29' E 153°24'0 0.0
2018-Jul-14 02:22S 27°29' E 153°24'4 0.2
2018-Jul-13 09:40S 27°32' E 153°20'0 0.1
2018-Jul-13 08:40S 27°32' E 153°20'0 0.0
2018-Jul-12 21:07S 27°32' E 153°21'4 4.5
2018-Jul-12 20:19S 27°30' E 153°24'0 0.0
2018-Jul-10 19:19S 27°30' E 153°24'5 0.2
2018-Jul-09 19:05S 27°32' E 153°19'  

Dump ship's entire track history